createdAt,value
2018-07-27T00:00:08.818Z,97913.66
2018-07-27T00:02:38.026Z,97916.28
2018-07-27T00:05:07.357Z,97912.27
2018-07-27T00:07:36.267Z,97913.16
2018-07-27T00:10:06.221Z,97911.13
2018-07-27T00:12:35.582Z,97913.16
2018-07-27T00:15:04.984Z,97907.65
2018-07-27T00:17:34.321Z,97914.15
2018-07-27T00:20:03.444Z,97908.89
2018-07-27T00:22:32.554Z,97911.84
2018-07-27T00:25:01.658Z,97912.81
2018-07-27T00:27:31.571Z,97913.41
2018-07-27T00:30:00.937Z,97909.38
2018-07-27T00:32:30.566Z,97919.20
2018-07-27T00:34:59.686Z,97921.92
2018-07-27T00:37:28.810Z,97918.69
2018-07-27T00:39:57.919Z,97919.46
2018-07-27T00:42:26.997Z,97917.97
2018-07-27T00:44:56.158Z,97920.98
2018-07-27T00:47:25.578Z,97921.50
2018-07-27T00:49:54.756Z,97914.84
2018-07-27T00:52:25.069Z,97915.02
2018-07-27T00:54:54.582Z,97923.05
2018-07-27T00:57:24.064Z,97919.89
2018-07-27T00:59:53.650Z,97918.77
2018-07-27T01:02:22.840Z,97917.68
2018-07-27T01:04:51.978Z,97914.94
2018-07-27T01:07:21.186Z,97917.01
2018-07-27T01:09:50.461Z,97916.84
2018-07-27T01:12:19.610Z,97923.16
2018-07-27T01:14:48.904Z,97917.12
2018-07-27T01:17:19.086Z,97919.88
2018-07-27T01:19:48.470Z,97923.78
2018-07-27T01:22:17.774Z,97929.19
2018-07-27T01:24:47.374Z,97924.48
2018-07-27T01:27:17.001Z,97922.34
2018-07-27T01:29:46.273Z,97926.09
2018-07-27T01:32:15.430Z,97923.73
2018-07-27T01:34:45.113Z,97922.84
2018-07-27T01:37:14.824Z,97925.62
2018-07-27T01:39:44.039Z,97931.14
2018-07-27T01:42:13.388Z,97932.72
2018-07-27T01:44:42.654Z,97932.58
2018-07-27T01:47:11.796Z,97928.64
2018-07-27T01:49:41.117Z,97927.97
2018-07-27T01:52:10.256Z,97928.16
2018-07-27T01:54:39.490Z,97927.42
2018-07-27T01:57:08.802Z,97922.67
2018-07-27T01:59:40.314Z,97919.06
2018-07-27T02:02:09.454Z,97915.55
2018-07-27T02:04:38.614Z,97925.18
2018-07-27T02:07:07.814Z,97921.64
2018-07-27T02:09:36.713Z,97926.13
2018-07-27T02:12:06.346Z,97927.86
2018-07-27T02:14:36.642Z,97929.95
2018-07-27T02:17:06.480Z,97936.30
2018-07-27T02:19:35.693Z,97942.00
2018-07-27T02:22:05.929Z,97930.47
2018-07-27T02:24:35.114Z,97925.44
2018-07-27T02:27:04.271Z,97925.77
2018-07-27T02:29:33.610Z,97921.78
2018-07-27T02:32:02.767Z,97924.61
2018-07-27T02:34:31.903Z,97919.84
2018-07-27T02:37:01.026Z,97924.67
2018-07-27T02:39:30.172Z,97915.39
2018-07-27T02:41:59.303Z,97924.06
2018-07-27T02:44:28.827Z,97929.73
2018-07-27T02:46:57.972Z,97919.95
2018-07-27T02:49:27.086Z,97909.53
2018-07-27T02:51:56.372Z,97921.05
2018-07-27T02:54:26.346Z,97911.22
2018-07-27T02:56:55.682Z,97910.75
2018-07-27T02:59:24.978Z,97912.07
2018-07-27T03:01:54.278Z,97914.76
2018-07-27T03:04:23.603Z,97906.14
2018-07-27T03:06:53.334Z,97909.55
2018-07-27T03:09:22.477Z,97900.55
2018-07-27T03:11:51.646Z,97892.57
2018-07-27T03:14:20.795Z,97890.43
2018-07-27T03:16:50.569Z,97885.23
2018-07-27T03:19:19.695Z,97889.89
2018-07-27T03:21:49.550Z,97884.47
2018-07-27T03:24:18.719Z,97889.33
2018-07-27T03:26:47.871Z,97884.65
2018-07-27T03:29:17.438Z,97881.14
2018-07-27T03:31:46.605Z,97878.41
2018-07-27T03:34:15.734Z,97879.02
2018-07-27T03:36:44.838Z,97885.11
2018-07-27T03:39:13.990Z,97873.02
2018-07-27T03:41:43.105Z,97878.11
2018-07-27T03:44:12.233Z,97886.27
2018-07-27T03:46:41.378Z,97882.41
2018-07-27T03:49:10.530Z,97885.98
2018-07-27T03:51:39.661Z,97884.49
2018-07-27T03:54:09.213Z,97874.25
2018-07-27T03:56:38.342Z,97877.64
2018-07-27T03:59:07.457Z,97876.63
2018-07-27T04:01:36.631Z,97876.98
2018-07-27T04:04:05.822Z,97880.69
2018-07-27T04:06:34.987Z,97879.19
2018-07-27T04:09:06.094Z,97884.58
2018-07-27T04:11:35.210Z,97886.50
2018-07-27T04:14:04.438Z,97879.20
2018-07-27T04:16:34.682Z,97885.31
2018-07-27T04:19:04.512Z,97879.75
2018-07-27T04:21:33.875Z,97883.39
2018-07-27T04:24:03.622Z,97877.84
2018-07-27T04:26:33.706Z,97887.03
2018-07-27T04:29:02.863Z,97881.04
2018-07-27T04:31:32.057Z,97880.88
2018-07-27T04:34:01.206Z,97874.53
2018-07-27T04:36:30.401Z,97872.63
2018-07-27T04:38:59.789Z,97877.33
2018-07-27T04:41:29.698Z,97878.19
2018-07-27T04:43:59.129Z,97876.45
2018-07-27T04:46:28.548Z,97873.72
2018-07-27T04:48:59.513Z,97873.87
2018-07-27T04:51:28.522Z,97874.73
2018-07-27T04:53:57.645Z,97876.48
2018-07-27T04:56:26.793Z,97872.31
2018-07-27T04:58:55.890Z,97875.52
2018-07-27T05:01:26.593Z,97865.93
2018-07-27T05:03:56.521Z,97867.98
2018-07-27T05:06:29.706Z,97871.16
2018-07-27T05:09:04.009Z,97867.03
2018-07-27T05:11:33.529Z,97867.50
2018-07-27T05:14:02.665Z,97871.92
2018-07-27T05:16:32.047Z,97876.55
2018-07-27T05:19:01.658Z,97885.21
2018-07-27T05:21:31.051Z,97879.98
2018-07-27T05:24:04.564Z,97879.23
2018-07-27T05:26:37.858Z,97881.75
2018-07-27T05:29:07.186Z,97883.39
2018-07-27T05:31:37.022Z,97887.74
2018-07-27T05:34:06.694Z,97895.09
2018-07-27T05:36:36.066Z,97882.72
2018-07-27T05:39:09.663Z,97889.30
2018-07-27T05:41:40.074Z,97893.22
2018-07-27T05:44:10.749Z,97891.75
2018-07-27T05:46:40.178Z,97892.70
2018-07-27T05:49:09.713Z,97892.40
2018-07-27T05:51:39.560Z,97887.27
2018-07-27T05:54:08.923Z,97888.42
2018-07-27T05:56:38.604Z,97889.83
2018-07-27T05:59:07.778Z,97889.09
2018-07-27T06:01:37.689Z,97885.47
2018-07-27T06:04:07.413Z,97885.96
2018-07-27T06:06:37.431Z,97888.33
2018-07-27T06:09:10.581Z,97891.13
2018-07-27T06:11:40.189Z,97896.03
2018-07-27T06:14:09.704Z,97890.57
2018-07-27T06:16:39.553Z,97887.66
2018-07-27T06:19:08.988Z,97895.45
2018-07-27T06:21:38.146Z,97889.86
2018-07-27T06:24:07.796Z,97899.00
2018-07-27T06:26:36.829Z,97888.08
2018-07-27T06:29:05.991Z,97892.91
2018-07-27T06:31:35.218Z,97890.77
2018-07-27T06:34:04.354Z,97893.61
2018-07-27T06:36:33.454Z,97899.86
2018-07-27T06:39:02.633Z,97897.35
2018-07-27T06:41:32.214Z,97900.74
2018-07-27T06:44:01.332Z,97894.68
2018-07-27T06:46:30.469Z,97898.27
2018-07-27T06:48:59.785Z,97892.05
2018-07-27T06:51:29.338Z,97899.22
2018-07-27T06:53:58.485Z,97902.79
2018-07-27T06:56:27.626Z,97900.84
2018-07-27T06:58:56.734Z,97897.74
2018-07-27T07:01:27.438Z,97901.75
2018-07-27T07:03:56.542Z,97898.91
2018-07-27T07:06:25.666Z,97898.88
2018-07-27T07:08:54.629Z,97898.89
2018-07-27T07:11:23.775Z,97895.75
2018-07-27T07:13:52.883Z,97890.48
2018-07-27T07:16:22.799Z,97888.52
2018-07-27T07:18:51.906Z,97891.07
2018-07-27T07:21:21.017Z,97891.06
2018-07-27T07:23:50.145Z,97888.50
2018-07-27T07:26:19.434Z,97890.09
2018-07-27T07:28:48.541Z,97891.09
2018-07-27T07:31:17.836Z,97887.95
2018-07-27T07:33:46.982Z,97882.19
2018-07-27T07:36:16.107Z,97880.90
2018-07-27T07:38:45.319Z,97870.95
2018-07-27T07:41:14.536Z,97877.29
2018-07-27T07:43:43.690Z,97871.67
2018-07-27T07:46:12.818Z,97869.72
2018-07-27T07:48:41.939Z,97859.27
2018-07-27T07:51:11.169Z,97869.66
2018-07-27T07:53:40.900Z,97865.58
2018-07-27T07:56:09.886Z,97862.13
2018-07-27T07:58:39.104Z,97861.52
2018-07-27T08:01:08.179Z,97860.73
2018-07-27T08:03:37.281Z,97859.46
2018-07-27T08:06:06.922Z,97854.79
2018-07-27T08:08:36.080Z,97866.11
2018-07-27T08:11:05.272Z,97853.62
2018-07-27T08:13:34.445Z,97853.96
2018-07-27T08:16:03.588Z,97855.23
2018-07-27T08:18:34.351Z,97858.80
2018-07-27T08:21:03.574Z,97860.10
2018-07-27T08:23:32.774Z,97851.98
2018-07-27T08:27:06.970Z,97846.69
2018-07-27T08:29:40.080Z,97844.02
2018-07-27T08:32:09.312Z,97842.35
2018-07-27T08:34:38.614Z,97844.37
2018-07-27T08:37:08.854Z,97843.97
2018-07-27T08:39:39.247Z,97842.23
2018-07-27T08:42:08.850Z,97839.62
2018-07-27T08:44:39.355Z,97841.93
2018-07-27T08:47:08.862Z,97845.03
2018-07-27T08:49:37.961Z,97840.98
2018-07-27T08:52:07.810Z,97842.04
2018-07-27T08:54:38.333Z,97835.92
2018-07-27T08:57:07.545Z,97837.14
2018-07-27T08:59:36.674Z,97826.77
2018-07-27T09:02:05.926Z,97831.22
2018-07-27T09:04:35.075Z,97826.00
2018-07-27T09:07:04.185Z,97826.94
2018-07-27T09:09:33.298Z,97827.92
2018-07-27T09:12:02.246Z,97822.95
2018-07-27T09:14:32.998Z,97831.11
2018-07-27T09:17:02.186Z,97822.07
2018-07-27T09:19:31.287Z,97816.50
2018-07-27T09:22:00.409Z,97810.17
2018-07-27T09:24:30.116Z,97813.75
2018-07-27T09:26:59.375Z,97810.56
2018-07-27T09:29:28.531Z,97810.49
2018-07-27T09:31:57.673Z,97810.50
2018-07-27T09:34:26.849Z,97804.03
2018-07-27T09:36:56.550Z,97805.21
2018-07-27T09:39:25.674Z,97803.80
2018-07-27T09:41:54.803Z,97805.45
2018-07-27T09:44:23.929Z,97802.41
2018-07-27T09:46:53.541Z,97794.38
2018-07-27T09:49:22.750Z,97794.84
2018-07-27T09:51:51.898Z,97796.08
2018-07-27T09:54:22.758Z,97800.00
2018-07-27T09:56:52.174Z,97791.72
2018-07-27T09:59:21.402Z,97793.48
2018-07-27T10:01:50.716Z,97796.97
2018-07-27T10:04:20.238Z,97790.39
2018-07-27T10:06:49.537Z,97788.13
2018-07-27T10:09:18.773Z,97785.17
2018-07-27T10:11:47.917Z,97782.59
2018-07-27T10:14:17.088Z,97787.28
2018-07-27T10:16:46.229Z,97784.34
2018-07-27T10:19:15.426Z,97793.70
2018-07-27T10:21:44.573Z,97789.45
2018-07-27T10:24:13.992Z,97778.89
2018-07-27T10:26:43.565Z,97775.00
2018-07-27T10:29:13.117Z,97774.25
2018-07-27T10:31:42.333Z,97772.41
2018-07-27T10:34:11.470Z,97772.13
2018-07-27T10:36:40.601Z,97776.55
2018-07-27T10:39:11.538Z,97778.56
2018-07-27T10:41:40.786Z,97760.55
2018-07-27T10:44:10.227Z,97763.25
2018-07-27T10:46:39.377Z,97759.99
2018-07-27T10:49:08.546Z,97764.11
2018-07-27T10:51:39.281Z,97752.69
2018-07-27T10:54:08.936Z,97751.64
2018-07-27T10:56:38.109Z,97745.98
2018-07-27T10:59:07.652Z,97745.03
2018-07-27T11:01:37.174Z,97739.11
2018-07-27T11:04:06.322Z,97734.98
2018-07-27T11:06:35.490Z,97738.83
2018-07-27T11:09:06.271Z,97735.64
2018-07-27T11:11:35.441Z,97733.78
2018-07-27T11:14:05.725Z,97733.42
2018-07-27T11:16:35.251Z,97725.49
2018-07-27T11:19:04.396Z,97726.44
2018-07-27T11:21:33.515Z,97721.23
2018-07-27T11:24:02.691Z,97714.15
2018-07-27T11:26:32.235Z,97715.09
2018-07-27T11:29:01.391Z,97710.72
2018-07-27T11:31:30.634Z,97715.63
2018-07-27T11:33:59.755Z,97714.34
2018-07-27T11:36:28.890Z,97700.05
2018-07-27T11:38:58.050Z,97700.80
2018-07-27T11:41:27.156Z,97709.94
2018-07-27T11:43:56.314Z,97697.22
2018-07-27T11:46:25.458Z,97703.31
2018-07-27T11:48:54.558Z,97698.52
2018-07-27T11:51:23.686Z,97703.39
2018-07-27T11:53:52.925Z,97688.64
2018-07-27T11:56:22.076Z,97692.01
2018-07-27T11:58:51.192Z,97692.73
2018-07-27T12:01:20.550Z,97686.94
2018-07-27T12:03:50.085Z,97684.87
2018-07-27T12:06:19.350Z,97681.31
2018-07-27T12:08:48.470Z,97679.98
2018-07-27T12:11:17.578Z,97676.22
2018-07-27T12:13:46.795Z,97685.14
2018-07-27T12:16:15.825Z,97673.10
2018-07-27T12:18:44.939Z,97668.03
2018-07-27T12:21:14.266Z,97672.16
2018-07-27T12:23:43.182Z,97672.82
2018-07-27T12:26:12.342Z,97667.81
2018-07-27T12:28:41.433Z,97671.91
2018-07-27T12:31:11.133Z,97673.28
2018-07-27T12:33:40.287Z,97671.58
2018-07-27T12:36:09.413Z,97659.52
2018-07-27T12:38:38.526Z,97658.20
2018-07-27T12:41:07.684Z,97654.46
2018-07-27T12:43:36.805Z,97651.64
2018-07-27T12:46:06.006Z,97654.72
2018-07-27T12:48:35.159Z,97656.27
2018-07-27T12:51:04.283Z,97652.56
2018-07-27T12:53:33.427Z,97646.87
2018-07-27T12:56:02.670Z,97645.24
2018-07-27T12:58:31.784Z,97646.34
2018-07-27T13:01:00.927Z,97642.21
2018-07-27T13:03:30.038Z,97646.82
2018-07-27T13:05:59.339Z,97638.91
2018-07-27T13:08:28.746Z,97639.39
2018-07-27T13:10:57.894Z,97637.27
2018-07-27T13:13:27.035Z,97635.12
2018-07-27T13:15:56.212Z,97637.76
2018-07-27T13:18:25.343Z,97635.39
2018-07-27T13:20:55.702Z,97631.64
2018-07-27T13:23:25.323Z,97626.59
2018-07-27T13:28:42.068Z,97624.61
2018-07-27T13:31:12.203Z,97626.97
2018-07-27T13:34:58.648Z,97618.41
2018-07-27T13:37:28.987Z,97620.70
2018-07-27T13:39:59.338Z,97624.80
2018-07-27T13:42:29.649Z,97612.69
2018-07-27T13:44:58.829Z,97608.03
2018-07-27T13:47:27.986Z,97603.50
2018-07-27T13:49:57.099Z,97613.55
2018-07-27T13:52:26.711Z,97612.56
2018-07-27T13:54:55.894Z,97613.14
2018-07-27T13:57:25.083Z,97606.50
2018-07-27T13:59:54.202Z,97602.31
2018-07-27T14:02:23.326Z,97601.52
2018-07-27T14:04:52.438Z,97598.39
2018-07-27T14:07:21.610Z,97594.19
2018-07-27T14:09:50.774Z,97590.31
2018-07-27T14:12:19.866Z,97588.00
2018-07-27T14:14:49.026Z,97593.92
2018-07-27T14:17:18.149Z,97599.24
2018-07-27T14:19:47.258Z,97584.66
2018-07-27T14:22:17.154Z,97590.16
2018-07-27T14:24:46.277Z,97587.56
2018-07-27T14:27:15.443Z,97575.59
2018-07-27T14:29:44.914Z,97576.11
2018-07-27T14:32:14.047Z,97575.66
2018-07-27T14:34:43.596Z,97579.01
2018-07-27T14:37:12.869Z,97567.53
2018-07-27T14:39:42.466Z,97566.14
2018-07-27T14:42:11.630Z,97575.83
2018-07-27T14:44:40.951Z,97568.91
2018-07-27T14:47:10.303Z,97558.20
2018-07-27T14:49:39.657Z,97560.53
2018-07-27T14:52:09.100Z,97559.96
2018-07-27T14:54:38.208Z,97554.05
2018-07-27T14:57:07.330Z,97560.48
2018-07-27T14:59:36.714Z,97557.95
2018-07-27T15:02:06.007Z,97547.66
2018-07-27T15:04:35.105Z,97545.63
2018-07-27T15:07:04.235Z,97549.77
2018-07-27T15:09:33.358Z,97548.66
2018-07-27T15:12:02.479Z,97543.05
2018-07-27T15:14:31.602Z,97539.89
2018-07-27T15:17:00.765Z,97538.39
2018-07-27T15:19:29.890Z,97533.56
2018-07-27T15:21:59.019Z,97547.11
2018-07-27T15:24:28.228Z,97543.09
2018-07-27T15:26:57.326Z,97539.79
2018-07-27T15:29:26.492Z,97536.20
2018-07-27T15:31:55.651Z,97530.05
2018-07-27T15:34:26.345Z,97526.63
2018-07-27T15:36:56.217Z,97534.31
2018-07-27T15:39:26.422Z,97529.05
2018-07-27T15:41:55.606Z,97531.66
2018-07-27T15:44:24.806Z,97523.19
2018-07-27T15:46:56.282Z,97519.13
2018-07-27T15:49:25.472Z,97521.03
2018-07-27T15:51:54.717Z,97523.36
2018-07-27T15:54:24.051Z,97520.80
2018-07-27T15:56:53.314Z,97524.09
2018-07-27T15:59:22.558Z,97520.02
2018-07-27T16:01:51.711Z,97516.25
2018-07-27T16:04:20.902Z,97516.66
2018-07-27T16:06:50.010Z,97515.97
2018-07-27T16:09:19.352Z,97510.52
2018-07-27T16:11:48.738Z,97507.68
2018-07-27T16:14:18.377Z,97504.77
2018-07-27T16:16:47.493Z,97497.81
2018-07-27T16:19:16.656Z,97494.33
2018-07-27T16:21:45.776Z,97496.25
2018-07-27T16:24:15.157Z,97495.31
2018-07-27T16:26:44.325Z,97489.23
2018-07-27T16:29:14.307Z,97494.91
2018-07-27T16:31:44.059Z,97497.02
2018-07-27T16:34:15.102Z,97492.77
2018-07-27T16:36:45.235Z,97492.49
2018-07-27T16:39:14.658Z,97490.65
2018-07-27T16:41:44.676Z,97492.10
2018-07-27T16:44:14.797Z,97489.36
2018-07-27T16:46:44.514Z,97493.31
2018-07-27T16:49:13.861Z,97491.45
2018-07-27T16:51:43.502Z,97496.55
2018-07-27T16:54:13.014Z,97489.25
2018-07-27T16:56:42.309Z,97492.16
2018-07-27T16:59:11.593Z,97493.24
2018-07-27T17:01:40.769Z,97499.39
2018-07-27T17:04:09.888Z,97501.00
2018-07-27T17:06:39.221Z,97503.72
2018-07-27T17:09:09.130Z,97498.17
2018-07-27T17:11:38.242Z,97500.81
2018-07-27T17:14:07.424Z,97496.09
2018-07-27T17:16:36.534Z,97496.25
2018-07-27T17:19:05.742Z,97492.47
2018-07-27T17:21:35.078Z,97487.70
2018-07-27T17:24:03.504Z,97497.88
2018-07-27T17:26:32.881Z,97497.62
2018-07-27T17:29:02.363Z,97486.70
2018-07-27T17:31:30.997Z,97488.85
2018-07-27T17:34:00.222Z,97489.19
2018-07-27T17:36:29.498Z,97492.71
2018-07-27T17:38:58.763Z,97485.19
2018-07-27T17:41:28.138Z,97483.18
2018-07-27T17:43:58.571Z,97484.45
2018-07-27T17:46:26.883Z,97485.17
2018-07-27T17:48:56.162Z,97490.72
2018-07-27T17:51:25.658Z,97489.89
2018-07-27T17:53:55.109Z,97493.48
2018-07-27T17:56:23.913Z,97491.45
2018-07-27T17:58:53.330Z,97490.02
2018-07-27T18:01:25.303Z,97497.06
2018-07-27T18:03:55.152Z,97494.30
2018-07-27T18:06:24.822Z,97494.78
2018-07-27T18:08:54.762Z,97493.05
2018-07-27T18:11:24.266Z,97494.81
2018-07-27T18:13:53.890Z,97497.39
2018-07-27T18:16:23.362Z,97502.77
2018-07-27T18:18:53.419Z,97501.52
2018-07-27T18:21:24.441Z,97499.19
2018-07-27T18:23:54.116Z,97493.85
2018-07-27T18:26:23.875Z,97501.63
2018-07-27T18:28:52.990Z,97495.56
2018-07-27T18:31:23.494Z,97499.09
2018-07-27T18:33:52.915Z,97506.98
2018-07-27T18:36:24.374Z,97516.97
2018-07-27T18:38:53.275Z,97513.27
2018-07-27T18:41:22.719Z,97514.08
2018-07-27T18:43:52.434Z,97508.23
2018-07-27T18:46:22.745Z,97520.19
2018-07-27T18:48:51.949Z,97516.80
2018-07-27T18:51:21.773Z,97519.27
2018-07-27T18:53:51.206Z,97515.98
2018-07-27T18:56:20.664Z,97517.16
2018-07-27T18:58:50.516Z,97524.17
2018-07-27T19:01:21.189Z,97522.13
2018-07-27T19:03:50.326Z,97524.02
2018-07-27T19:06:19.542Z,97526.51
2018-07-27T19:08:50.162Z,97528.83
2018-07-27T19:11:19.911Z,97533.35
2018-07-27T19:13:51.454Z,97528.28
2018-07-27T19:16:20.198Z,97533.30
2018-07-27T19:18:49.326Z,97538.07
2018-07-27T19:21:18.430Z,97535.61
2018-07-27T19:23:47.218Z,97535.84
2018-07-27T19:26:16.326Z,97543.23
2018-07-27T19:28:45.690Z,97541.42
2018-07-27T19:31:15.024Z,97543.86
2018-07-27T19:33:44.297Z,97543.64
2018-07-27T19:36:14.168Z,97548.09
2018-07-27T19:38:43.311Z,97551.31
2018-07-27T19:41:12.090Z,97555.37
2018-07-27T19:43:41.310Z,97554.95
2018-07-27T19:46:10.364Z,97557.16
2018-07-27T19:48:39.781Z,97549.61
2018-07-27T19:51:08.929Z,97556.91
2018-07-27T19:53:38.100Z,97556.84
2018-07-27T19:56:07.353Z,97557.64
2018-07-27T19:58:36.489Z,97557.70
2018-07-27T20:01:05.635Z,97551.53
2018-07-27T20:03:34.942Z,97551.95
2018-07-27T20:06:04.134Z,97554.27
2018-07-27T20:08:33.260Z,97559.12
2018-07-27T20:11:02.384Z,97559.14
2018-07-27T20:13:31.505Z,97555.16
2018-07-27T20:16:00.634Z,97559.52
2018-07-27T20:18:29.760Z,97558.50
2018-07-27T20:20:58.938Z,97553.97
2018-07-27T20:23:28.052Z,97551.44
2018-07-27T20:25:57.166Z,97558.27
2018-07-27T20:28:26.312Z,97559.34
2018-07-27T20:30:55.430Z,97559.38
2018-07-27T20:33:24.614Z,97556.97
2018-07-27T20:35:53.910Z,97556.63
2018-07-27T20:38:23.034Z,97565.15
2018-07-27T20:40:52.180Z,97566.34
2018-07-27T20:43:21.309Z,97569.87
2018-07-27T20:45:50.589Z,97563.48
2018-07-27T20:48:19.988Z,97564.38
2018-07-27T20:50:49.251Z,97560.09
2018-07-27T20:53:18.735Z,97561.52
2018-07-27T20:55:48.102Z,97562.39
2018-07-27T20:58:23.318Z,97561.55
2018-07-27T21:00:52.610Z,97555.84
2018-07-27T21:03:22.570Z,97556.16
2018-07-27T21:05:51.390Z,97555.98
2018-07-27T21:08:20.755Z,97553.07
2018-07-27T21:10:50.062Z,97553.78
2018-07-27T21:13:23.006Z,97553.78
2018-07-27T21:15:52.396Z,97555.89
2018-07-27T21:18:21.502Z,97552.95
2018-07-27T21:20:51.039Z,97550.30
2018-07-27T21:23:20.945Z,97545.10
2018-07-27T21:25:50.258Z,97551.10
2018-07-27T21:28:19.493Z,97550.12
2018-07-27T21:30:49.135Z,97557.79
2018-07-27T21:33:18.470Z,97554.46
2018-07-27T21:35:48.042Z,97558.03
2018-07-27T21:38:17.094Z,97551.34
2018-07-27T21:40:46.237Z,97565.05
2018-07-27T21:43:16.248Z,97554.09
2018-07-27T21:45:45.447Z,97553.06
2018-07-27T21:48:14.688Z,97556.09
2018-07-27T21:50:43.730Z,97549.81
2018-07-27T21:53:12.866Z,97553.32
2018-07-27T21:55:42.054Z,97553.89
2018-07-27T21:58:11.830Z,97548.84
2018-07-27T22:00:41.515Z,97548.20
2018-07-27T22:03:10.910Z,97537.91
2018-07-27T22:05:40.025Z,97538.05
2018-07-27T22:08:09.151Z,97538.78
2018-07-27T22:10:38.362Z,97538.11
2018-07-27T22:13:07.884Z,97540.70
2018-07-27T22:15:37.250Z,97536.97
2018-07-27T22:18:06.761Z,97533.79
2018-07-27T22:20:37.721Z,97532.58
2018-07-27T22:23:07.055Z,97533.99
2018-07-27T22:25:36.390Z,97535.78
2018-07-27T22:28:05.898Z,97526.22
2018-07-27T22:30:35.674Z,97527.66
2018-07-27T22:33:05.062Z,97522.32
2018-07-27T22:35:34.670Z,97525.22
2018-07-27T22:38:04.086Z,97522.77
2018-07-27T22:40:34.461Z,97518.88
2018-07-27T22:43:03.610Z,97517.13
2018-07-27T22:45:32.509Z,97515.73
2018-07-27T22:48:01.678Z,97510.61
2018-07-27T22:50:30.870Z,97509.47
2018-07-27T22:52:59.993Z,97505.74
2018-07-27T22:55:29.030Z,97505.67
2018-07-27T22:58:00.583Z,97508.05
2018-07-27T23:00:29.707Z,97501.67
2018-07-27T23:02:59.070Z,97503.63
2018-07-27T23:05:28.119Z,97502.06
2018-07-27T23:07:57.251Z,97506.72
2018-07-27T23:10:26.889Z,97498.08
2018-07-27T23:12:55.992Z,97503.36
2018-07-27T23:15:25.818Z,97501.77
2018-07-27T23:17:54.937Z,97504.05
2018-07-27T23:20:24.075Z,97500.75
2018-07-27T23:22:53.182Z,97494.52
2018-07-27T23:27:57.948Z,97496.95
2018-07-27T23:30:27.046Z,97502.05
2018-07-27T23:32:56.186Z,97507.09
2018-07-27T23:35:25.723Z,97503.61
2018-07-27T23:37:55.096Z,97506.38
2018-07-27T23:40:24.182Z,97492.98
2018-07-27T23:42:54.114Z,97491.09
2018-07-27T23:45:23.235Z,97485.25
2018-07-27T23:47:52.345Z,97486.39
2018-07-27T23:50:21.840Z,97489.75
2018-07-27T23:52:54.017Z,97486.36
2018-07-27T23:55:23.758Z,97479.98
2018-07-27T23:57:53.638Z,97482.36
